sensor_id;sensor_type;location;lat;lon;timestamp;pressure;altitude;pressure_sealevel;temperature;humidity
11339;BME280;5724;42.684;23.252;2023-12-04T00:02:41;94829.47;;;-2.18;91.55
11339;BME280;5724;42.684;23.252;2023-12-04T00:05:27;94832.66;;;-2.26;92.66
11339;BME280;5724;42.684;23.252;2023-12-04T00:08:13;94843.63;;;-2.23;92.39
11339;BME280;5724;42.684;23.252;2023-12-04T00:10:59;94836.16;;;-2.31;92.81
11339;BME280;5724;42.684;23.252;2023-12-04T00:13:45;94841.25;;;-2.19;90.91
11339;BME280;5724;42.684;23.252;2023-12-04T00:16:34;94857.81;;;-2.22;90.42
11339;BME280;5724;42.684;23.252;2023-12-04T00:19:23;94859.97;;;-2.14;89.84
11339;BME280;5724;42.684;23.252;2023-12-04T00:22:11;94862.38;;;-2.13;91.03
11339;BME280;5724;42.684;23.252;2023-12-04T00:24:57;94862.16;;;-2.01;91.06
11339;BME280;5724;42.684;23.252;2023-12-04T00:27:43;94872.03;;;-1.96;89.04
11339;BME280;5724;42.684;23.252;2023-12-04T00:30:29;94877.09;;;-2.25;87.48
11339;BME280;5724;42.684;23.252;2023-12-04T00:33:15;94869.06;;;-2.36;88.70
11339;BME280;5724;42.684;23.252;2023-12-04T00:36:01;94873.88;;;-2.38;88.41
11339;BME280;5724;42.684;23.252;2023-12-04T00:38:47;94870.13;;;-2.26;89.32
11339;BME280;5724;42.684;23.252;2023-12-04T00:41:32;94853.25;;;-2.32;89.82
11339;BME280;5724;42.684;23.252;2023-12-04T00:44:18;94875.25;;;-2.10;89.68
11339;BME280;5724;42.684;23.252;2023-12-04T00:47:04;94879.25;;;-2.07;89.44
11339;BME280;5724;42.684;23.252;2023-12-04T00:49:50;94880.63;;;-1.99;88.23
11339;BME280;5724;42.684;23.252;2023-12-04T00:52:36;94884.06;;;-2.24;88.20
11339;BME280;5724;42.684;23.252;2023-12-04T00:55:21;94891.25;;;-2.35;88.46
11339;BME280;5724;42.684;23.252;2023-12-04T00:58:07;94889.66;;;-2.26;88.19
11339;BME280;5724;42.684;23.252;2023-12-04T01:00:53;94892.38;;;-2.16;88.40
11339;BME280;5724;42.684;23.252;2023-12-04T01:03:39;94891.28;;;-2.30;87.07
11339;BME280;5724;42.684;23.252;2023-12-04T01:06:25;94887.25;;;-2.27;87.55
11339;BME280;5724;42.684;23.252;2023-12-04T01:09:11;94893.66;;;-2.49;87.60
11339;BME280;5724;42.684;23.252;2023-12-04T01:11:57;94889.91;;;-2.38;87.93
11339;BME280;5724;42.684;23.252;2023-12-04T01:14:43;94895.56;;;-2.24;87.86
11339;BME280;5724;42.684;23.252;2023-12-04T01:17:29;94894.50;;;-2.28;88.01
11339;BME280;5724;42.684;23.252;2023-12-04T01:20:15;94905.22;;;-2.18;88.19
11339;BME280;5724;42.684;23.252;2023-12-04T01:23:01;94894.25;;;-2.16;87.79
11339;BME280;5724;42.684;23.252;2023-12-04T01:25:47;94902.81;;;-2.14;86.65
11339;BME280;5724;42.684;23.252;2023-12-04T01:28:32;94883.78;;;-2.23;86.80
11339;BME280;5724;42.684;23.252;2023-12-04T01:31:18;94889.69;;;-2.31;86.61
11339;BME280;5724;42.684;23.252;2023-12-04T01:34:04;94907.59;;;-2.26;85.55
11339;BME280;5724;42.684;23.252;2023-12-04T01:36:50;94901.19;;;-2.31;85.70
11339;BME280;5724;42.684;23.252;2023-12-04T01:39:35;94907.28;;;-2.45;85.96
11339;BME280;5724;42.684;23.252;2023-12-04T01:42:22;94913.69;;;-2.56;87.19
11339;BME280;5724;42.684;23.252;2023-12-04T01:45:08;94907.00;;;-2.54;87.34
11339;BME280;5724;42.684;23.252;2023-12-04T01:47:54;94919.03;;;-2.51;86.91
11339;BME280;5724;42.684;23.252;2023-12-04T01:50:40;94905.34;;;-2.65;86.19
11339;BME280;5724;42.684;23.252;2023-12-04T01:53:27;94914.44;;;-2.61;86.77
11339;BME280;5724;42.684;23.252;2023-12-04T01:56:14;94916.06;;;-2.65;87.23
11339;BME280;5724;42.684;23.252;2023-12-04T01:59:00;94925.69;;;-2.69;88.54
11339;BME280;5724;42.684;23.252;2023-12-04T02:01:46;94912.25;;;-2.79;87.53
11339;BME280;5724;42.684;23.252;2023-12-04T02:04:32;94927.25;;;-2.78;87.71
11339;BME280;5724;42.684;23.252;2023-12-04T02:07:18;94905.53;;;-2.82;88.39
11339;BME280;5724;42.684;23.252;2023-12-04T02:10:04;94918.09;;;-2.88;88.67
11339;BME280;5724;42.684;23.252;2023-12-04T02:12:52;94921.00;;;-2.94;90.35
11339;BME280;5724;42.684;23.252;2023-12-04T02:15:38;94918.16;;;-2.77;90.65
11339;BME280;5724;42.684;23.252;2023-12-04T02:18:24;94916.03;;;-2.70;89.09
11339;BME280;5724;42.684;23.252;2023-12-04T02:21:11;94928.81;;;-2.88;88.57
11339;BME280;5724;42.684;23.252;2023-12-04T02:23:56;94931.53;;;-2.77;89.23
11339;BME280;5724;42.684;23.252;2023-12-04T02:26:55;94936.38;;;-2.69;88.35
11339;BME280;5724;42.684;23.252;2023-12-04T02:29:50;94930.19;;;-2.75;88.15
11339;BME280;5724;42.684;23.252;2023-12-04T02:32:43;94931.81;;;-2.69;88.45
11339;BME280;5724;42.684;23.252;2023-12-04T02:35:31;94937.97;;;-2.68;87.22
11339;BME280;5724;42.684;23.252;2023-12-04T02:38:18;94941.44;;;-2.73;87.35
11339;BME280;5724;42.684;23.252;2023-12-04T02:41:05;94932.09;;;-2.65;87.08
11339;BME280;5724;42.684;23.252;2023-12-04T02:43:51;94951.94;;;-2.56;86.36
11339;BME280;5724;42.684;23.252;2023-12-04T02:46:36;94955.41;;;-2.61;86.59
11339;BME280;5724;42.684;23.252;2023-12-04T02:49:22;94951.31;;;-2.73;86.42
11339;BME280;5724;42.684;23.252;2023-12-04T02:52:08;94953.38;;;-2.91;85.45
11339;BME280;5724;42.684;23.252;2023-12-04T02:54:54;94956.59;;;-2.89;86.29
11339;BME280;5724;42.684;23.252;2023-12-04T02:57:40;94947.97;;;-3.01;85.75
11339;BME280;5724;42.684;23.252;2023-12-04T03:00:26;94952.25;;;-3.00;86.06
11339;BME280;5724;42.684;23.252;2023-12-04T03:03:11;94953.78;;;-3.14;86.97
11339;BME280;5724;42.684;23.252;2023-12-04T03:05:57;94956.34;;;-3.29;86.95
11339;BME280;5724;42.684;23.252;2023-12-04T03:08:43;94954.47;;;-3.29;86.44
11339;BME280;5724;42.684;23.252;2023-12-04T03:11:29;94963.34;;;-3.23;87.56
11339;BME280;5724;42.684;23.252;2023-12-04T03:14:15;94951.31;;;-3.21;86.61
11339;BME280;5724;42.684;23.252;2023-12-04T03:17:00;94962.34;;;-3.12;86.26
11339;BME280;5724;42.684;23.252;2023-12-04T03:19:46;94964.47;;;-3.14;85.97
11339;BME280;5724;42.684;23.252;2023-12-04T03:22:32;94953.72;;;-3.19;86.86
11339;BME280;5724;42.684;23.252;2023-12-04T03:24:58;94962.34;;;-3.12;86.35
11339;BME280;5724;42.684;23.252;2023-12-04T03:27:24;94954.31;;;-3.17;86.82
11339;BME280;5724;42.684;23.252;2023-12-04T03:29:49;94983.19;;;-3.14;86.91
11339;BME280;5724;42.684;23.252;2023-12-04T03:32:35;94964.47;;;-3.09;86.87
11339;BME280;5724;42.684;23.252;2023-12-04T03:35:21;94983.19;;;-3.14;87.47
11339;BME280;5724;42.684;23.252;2023-12-04T03:38:07;94958.19;;;-3.30;88.05
11339;BME280;5724;42.684;23.252;2023-12-04T03:40:53;94963.56;;;-3.30;88.50
11339;BME280;5724;42.684;23.252;2023-12-04T03:43:38;94963.34;;;-3.23;87.92
11339;BME280;5724;42.684;23.252;2023-12-04T03:46:24;94966.75;;;-3.33;88.43
11339;BME280;5724;42.684;23.252;2023-12-04T03:49:11;94971.88;;;-3.26;87.46
11339;BME280;5724;42.684;23.252;2023-12-04T03:51:57;94991.59;;;-3.32;87.91
11339;BME280;5724;42.684;23.252;2023-12-04T03:54:43;94968.56;;;-3.38;87.86
11339;BME280;5724;42.684;23.252;2023-12-04T03:57:28;94968.81;;;-3.40;88.25
11339;BME280;5724;42.684;23.252;2023-12-04T04:00:14;94956.66;;;-3.58;88.55
11339;BME280;5724;42.684;23.252;2023-12-04T04:03:00;94960.47;;;-3.49;87.79
11339;BME280;5724;42.684;23.252;2023-12-04T04:05:46;94975.50;;;-3.42;88.29
11339;BME280;5724;42.684;23.252;2023-12-04T04:08:32;94974.63;;;-3.48;88.12
11339;BME280;5724;42.684;23.252;2023-12-04T04:11:18;94968.47;;;-3.49;88.26
11339;BME280;5724;42.684;23.252;2023-12-04T04:14:04;94966.66;;;-3.43;87.30
11339;BME280;5724;42.684;23.252;2023-12-04T04:16:50;94974.59;;;-3.53;87.01
11339;BME280;5724;42.684;23.252;2023-12-04T04:19:36;94990.38;;;-3.52;87.28
11339;BME280;5724;42.684;23.252;2023-12-04T04:22:22;94970.78;;;-3.62;87.98
11339;BME280;5724;42.684;23.252;2023-12-04T04:25:08;94971.53;;;-3.67;87.98
11339;BME280;5724;42.684;23.252;2023-12-04T04:27:54;94991.09;;;-3.61;87.45
11339;BME280;5724;42.684;23.252;2023-12-04T04:30:40;94994.06;;;-3.58;86.36
11339;BME280;5724;42.684;23.252;2023-12-04T04:33:26;94997.66;;;-3.74;86.39
11339;BME280;5724;42.684;23.252;2023-12-04T04:36:12;94998.00;;;-3.65;86.87
11339;BME280;5724;42.684;23.252;2023-12-04T04:38:58;94979.56;;;-3.67;86.40
11339;BME280;5724;42.684;23.252;2023-12-04T04:41:44;94983.88;;;-3.61;86.23
11339;BME280;5724;42.684;23.252;2023-12-04T04:44:30;94999.91;;;-3.61;86.08
11339;BME280;5724;42.684;23.252;2023-12-04T04:47:15;95001.88;;;-3.51;85.89
11339;BME280;5724;42.684;23.252;2023-12-04T04:50:01;95000.81;;;-3.50;85.43
11339;BME280;5724;42.684;23.252;2023-12-04T04:52:47;95006.06;;;-3.60;85.37
11339;BME280;5724;42.684;23.252;2023-12-04T04:55:34;95013.31;;;-3.56;86.12
11339;BME280;5724;42.684;23.252;2023-12-04T04:58:20;95012.91;;;-3.69;86.82
11339;BME280;5724;42.684;23.252;2023-12-04T05:01:06;95013.00;;;-3.86;88.60
11339;BME280;5724;42.684;23.252;2023-12-04T05:03:52;95003.50;;;-4.04;89.60
11339;BME280;5724;42.684;23.252;2023-12-04T05:06:39;94999.72;;;-4.08;90.42
11339;BME280;5724;42.684;23.252;2023-12-04T05:09:26;95003.75;;;-4.06;91.34
11339;BME280;5724;42.684;23.252;2023-12-04T05:12:11;95005.06;;;-4.08;91.05
11339;BME280;5724;42.684;23.252;2023-12-04T05:14:57;95008.09;;;-3.99;91.05
11339;BME280;5724;42.684;23.252;2023-12-04T05:17:43;95004.88;;;-4.01;91.76
11339;BME280;5724;42.684;23.252;2023-12-04T05:20:29;95014.56;;;-3.95;91.46
11339;BME280;5724;42.684;23.252;2023-12-04T05:23:15;95020.47;;;-3.88;91.17
11339;BME280;5724;42.684;23.252;2023-12-04T05:26:01;95016.59;;;-4.03;91.81
11339;BME280;5724;42.684;23.252;2023-12-04T05:28:46;95009.59;;;-4.09;92.57
11339;BME280;5724;42.684;23.252;2023-12-04T05:31:33;95022.63;;;-4.12;92.00
11339;BME280;5724;42.684;23.252;2023-12-04T05:34:19;95014.94;;;-4.09;92.96
11339;BME280;5724;42.684;23.252;2023-12-04T05:37:04;95021.88;;;-4.08;92.24
11339;BME280;5724;42.684;23.252;2023-12-04T05:39:50;95021.94;;;-4.03;92.35
11339;BME280;5724;42.684;23.252;2023-12-04T05:42:36;95030.09;;;-4.14;92.65
11339;BME280;5724;42.684;23.252;2023-12-04T05:45:22;95015.69;;;-4.13;92.38
11339;BME280;5724;42.684;23.252;2023-12-04T05:48:08;95021.13;;;-4.03;92.42
11339;BME280;5724;42.684;23.252;2023-12-04T05:50:54;95026.16;;;-4.07;92.76
11339;BME280;5724;42.684;23.252;2023-12-04T05:53:39;95040.19;;;-4.16;92.75
11339;BME280;5724;42.684;23.252;2023-12-04T05:56:25;95034.56;;;-4.20;93.85
11339;BME280;5724;42.684;23.252;2023-12-04T05:59:11;95032.53;;;-4.08;92.62
11339;BME280;5724;42.684;23.252;2023-12-04T06:01:57;95014.00;;;-4.19;93.29
11339;BME280;5724;42.684;23.252;2023-12-04T06:04:43;95034.97;;;-4.06;93.52
11339;BME280;5724;42.684;23.252;2023-12-04T06:07:28;95016.97;;;-4.16;93.32
11339;BME280;5724;42.684;23.252;2023-12-04T06:10:14;95039.13;;;-3.93;93.57
11339;BME280;5724;42.684;23.252;2023-12-04T06:13:00;95040.47;;;-3.91;92.80
11339;BME280;5724;42.684;23.252;2023-12-04T06:15:46;95040.88;;;-3.77;93.31
11339;BME280;5724;42.684;23.252;2023-12-04T06:18:32;95044.75;;;-3.63;93.30
11339;BME280;5724;42.684;23.252;2023-12-04T06:21:18;95052.25;;;-3.60;93.25
11339;BME280;5724;42.684;23.252;2023-12-04T06:24:04;95057.78;;;-3.39;92.23
11339;BME280;5724;42.684;23.252;2023-12-04T06:26:51;95057.03;;;-3.35;91.51
11339;BME280;5724;42.684;23.252;2023-12-04T06:29:37;95044.50;;;-3.29;91.15
11339;BME280;5724;42.684;23.252;2023-12-04T06:32:24;95052.13;;;-3.16;90.65
11339;BME280;5724;42.684;23.252;2023-12-04T06:35:10;95051.25;;;-3.22;89.37
11339;BME280;5724;42.684;23.252;2023-12-04T06:38:00;95059.25;;;-3.27;88.68
11339;BME280;5724;42.684;23.252;2023-12-04T06:40:49;95065.69;;;-3.23;88.93
11339;BME280;5724;42.684;23.252;2023-12-04T06:43:35;95062.06;;;-3.38;88.86
11339;BME280;5724;42.684;23.252;2023-12-04T06:46:21;95076.38;;;-3.23;89.97
11339;BME280;5724;42.684;23.252;2023-12-04T06:49:11;95089.72;;;-3.23;88.57
11339;BME280;5724;42.684;23.252;2023-12-04T06:51:59;95087.94;;;-3.17;89.68
11339;BME280;5724;42.684;23.252;2023-12-04T06:54:45;95082.34;;;-3.10;89.04
11339;BME280;5724;42.684;23.252;2023-12-04T06:57:31;95087.66;;;-3.15;88.89
11339;BME280;5724;42.684;23.252;2023-12-04T07:00:17;95087.03;;;-2.96;88.80
11339;BME280;5724;42.684;23.252;2023-12-04T07:03:03;95089.16;;;-2.98;88.29
11339;BME280;5724;42.684;23.252;2023-12-04T07:05:49;95090.78;;;-2.92;87.45
11339;BME280;5724;42.684;23.252;2023-12-04T07:08:35;95094.00;;;-2.90;87.30
11339;BME280;5724;42.684;23.252;2023-12-04T07:11:22;95092.97;;;-2.89;87.30
11339;BME280;5724;42.684;23.252;2023-12-04T07:14:07;95095.78;;;-2.68;87.95
11339;BME280;5724;42.684;23.252;2023-12-04T07:16:53;95086.72;;;-2.62;87.13
11339;BME280;5724;42.684;23.252;2023-12-04T07:19:41;95093.22;;;-2.48;87.54
11339;BME280;5724;42.684;23.252;2023-12-04T07:22:27;95097.25;;;-2.50;85.64
11339;BME280;5724;42.684;23.252;2023-12-04T07:25:13;95101.97;;;-2.20;84.65
11339;BME280;5724;42.684;23.252;2023-12-04T07:27:59;95098.31;;;-1.94;84.95
11339;BME280;5724;42.684;23.252;2023-12-04T07:30:45;95088.50;;;-1.73;83.42
11339;BME280;5724;42.684;23.252;2023-12-04T07:33:30;95092.44;;;-1.86;81.02
11339;BME280;5724;42.684;23.252;2023-12-04T07:36:16;95109.78;;;-2.04;81.91
11339;BME280;5724;42.684;23.252;2023-12-04T07:39:02;95100.09;;;-2.15;83.21
11339;BME280;5724;42.684;23.252;2023-12-04T07:41:51;95114.06;;;-2.08;81.76
11339;BME280;5724;42.684;23.252;2023-12-04T07:44:38;95103.91;;;-2.00;80.88
11339;BME280;5724;42.684;23.252;2023-12-04T07:47:24;95097.66;;;-2.21;82.42
11339;BME280;5724;42.684;23.252;2023-12-04T07:50:10;95105.75;;;-2.11;82.25
11339;BME280;5724;42.684;23.252;2023-12-04T07:52:56;95099.56;;;-2.17;80.72
11339;BME280;5724;42.684;23.252;2023-12-04T07:55:42;95096.56;;;-2.25;80.85
11339;BME280;5724;42.684;23.252;2023-12-04T07:58:30;95093.19;;;-2.06;80.96
11339;BME280;5724;42.684;23.252;2023-12-04T08:01:15;95117.13;;;-1.79;80.66
11339;BME280;5724;42.684;23.252;2023-12-04T08:04:01;95113.41;;;-1.67;78.63
11339;BME280;5724;42.684;23.252;2023-12-04T08:06:48;95114.06;;;-1.35;76.47
11339;BME280;5724;42.684;23.252;2023-12-04T08:09:33;95142.69;;;-1.51;73.80
11339;BME280;5724;42.684;23.252;2023-12-04T08:12:19;95118.56;;;-1.46;75.33
11339;BME280;5724;42.684;23.252;2023-12-04T08:15:05;95123.34;;;-1.63;72.48
11339;BME280;5724;42.684;23.252;2023-12-04T08:17:52;95118.84;;;-1.42;73.52
11339;BME280;5724;42.684;23.252;2023-12-04T08:20:38;95127.84;;;-1.79;70.92
11339;BME280;5724;42.684;23.252;2023-12-04T08:23:23;95119.09;;;-1.54;71.44
11339;BME280;5724;42.684;23.252;2023-12-04T08:26:09;95118.00;;;-1.63;72.46
11339;BME280;5724;42.684;23.252;2023-12-04T08:28:55;95127.41;;;-1.45;68.65
11339;BME280;5724;42.684;23.252;2023-12-04T08:31:42;95118.88;;;-1.27;69.41
11339;BME280;5724;42.684;23.252;2023-12-04T08:34:27;95121.06;;;-0.98;68.15
11339;BME280;5724;42.684;23.252;2023-12-04T08:37:13;95123.22;;;-1.16;69.22
11339;BME280;5724;42.684;23.252;2023-12-04T08:40:01;95116.75;;;-1.14;67.69
11339;BME280;5724;42.684;23.252;2023-12-04T08:42:49;95122.31;;;-1.52;68.93
11339;BME280;5724;42.684;23.252;2023-12-04T08:45:35;95115.91;;;-1.40;67.93
11339;BME280;5724;42.684;23.252;2023-12-04T08:48:20;95119.97;;;-1.12;68.75
11339;BME280;5724;42.684;23.252;2023-12-04T08:51:07;95115.69;;;-1.24;68.31
11339;BME280;5724;42.684;23.252;2023-12-04T08:53:53;95121.59;;;-0.91;68.38
11339;BME280;5724;42.684;23.252;2023-12-04T08:56:39;95123.75;;;-1.13;69.43
11339;BME280;5724;42.684;23.252;2023-12-04T08:59:26;95098.00;;;-1.04;69.60
11339;BME280;5724;42.684;23.252;2023-12-04T09:02:12;95116.25;;;-0.81;67.93
11339;BME280;5724;42.684;23.252;2023-12-04T09:04:58;95100.13;;;-1.11;68.24
11339;BME280;5724;42.684;23.252;2023-12-04T09:07:44;95088.56;;;-1.42;70.14
11339;BME280;5724;42.684;23.252;2023-12-04T09:10:30;95094.72;;;-1.52;68.57
11339;BME280;5724;42.684;23.252;2023-12-04T09:13:15;95075.72;;;-1.20;69.31
11339;BME280;5724;42.684;23.252;2023-12-04T09:16:01;95085.94;;;-0.66;69.41
11339;BME280;5724;42.684;23.252;2023-12-04T09:18:47;95077.63;;;-0.85;69.48
11339;BME280;5724;42.684;23.252;2023-12-04T09:21:33;95078.16;;;-0.57;69.86
11339;BME280;5724;42.684;23.252;2023-12-04T09:24:19;95081.84;;;-0.48;67.06
11339;BME280;5724;42.684;23.252;2023-12-04T09:27:05;95068.75;;;-0.55;66.33
11339;BME280;5724;42.684;23.252;2023-12-04T09:29:52;95089.59;;;-0.21;66.20
11339;BME280;5724;42.684;23.252;2023-12-04T09:32:38;95074.91;;;-0.54;67.02
11339;BME280;5724;42.684;23.252;2023-12-04T09:35:24;95075.09;;;-0.15;66.15
11339;BME280;5724;42.684;23.252;2023-12-04T09:38:10;95076.94;;;-0.06;65.56
11339;BME280;5724;42.684;23.252;2023-12-04T09:40:58;95076.44;;;-0.23;66.40
11339;BME280;5724;42.684;23.252;2023-12-04T09:43:46;95070.63;;;-0.55;67.02
11339;BME280;5724;42.684;23.252;2023-12-04T09:46:33;95068.88;;;-0.06;66.73
11339;BME280;5724;42.684;23.252;2023-12-04T09:49:20;95061.69;;;-0.31;66.64
11339;BME280;5724;42.684;23.252;2023-12-04T09:52:06;95057.13;;;-0.25;65.65
11339;BME280;5724;42.684;23.252;2023-12-04T09:54:52;95064.16;;;0.31;65.34
11339;BME280;5724;42.684;23.252;2023-12-04T09:57:38;95055.31;;;0.30;64.13
11339;BME280;5724;42.684;23.252;2023-12-04T10:00:24;95055.34;;;0.20;63.93
11339;BME280;5724;42.684;23.252;2023-12-04T10:03:10;95049.66;;;-0.48;65.41
11339;BME280;5724;42.684;23.252;2023-12-04T10:05:57;95048.63;;;0.17;68.19
11339;BME280;5724;42.684;23.252;2023-12-04T10:08:44;95048.22;;;0.44;66.57
11339;BME280;5724;42.684;23.252;2023-12-04T10:11:30;95051.00;;;0.29;63.69
11339;BME280;5724;42.684;23.252;2023-12-04T10:14:17;95049.75;;;0.55;64.54
11339;BME280;5724;42.684;23.252;2023-12-04T10:17:16;95054.69;;;0.38;63.48
11339;BME280;5724;42.684;23.252;2023-12-04T10:20:07;95057.75;;;0.71;63.21
11339;BME280;5724;42.684;23.252;2023-12-04T10:23:01;95049.09;;;0.74;62.69
11339;BME280;5724;42.684;23.252;2023-12-04T10:25:48;95044.47;;;0.84;62.12
11339;BME280;5724;42.684;23.252;2023-12-04T10:28:37;95045.44;;;0.99;62.35
11339;BME280;5724;42.684;23.252;2023-12-04T10:31:24;95042.34;;;0.81;61.39
11339;BME280;5724;42.684;23.252;2023-12-04T10:34:10;95025.47;;;0.71;61.75
11339;BME280;5724;42.684;23.252;2023-12-04T10:36:56;95027.56;;;0.79;62.25
11339;BME280;5724;42.684;23.252;2023-12-04T10:39:48;95021.25;;;0.60;62.22
11339;BME280;5724;42.684;23.252;2023-12-04T10:42:34;95006.78;;;0.50;62.79
11339;BME280;5724;42.684;23.252;2023-12-04T10:45:21;95032.91;;;1.18;61.15
11339;BME280;5724;42.684;23.252;2023-12-04T10:48:09;95015.59;;;1.24;60.91
11339;BME280;5724;42.684;23.252;2023-12-04T10:50:56;95026.31;;;1.58;60.18
11339;BME280;5724;42.684;23.252;2023-12-04T10:53:44;95017.16;;;1.83;58.92
11339;BME280;5724;42.684;23.252;2023-12-04T10:56:40;95022.78;;;1.34;59.85
11339;BME280;5724;42.684;23.252;2023-12-04T10:59:32;95026.41;;;0.90;59.81
11339;BME280;5724;42.684;23.252;2023-12-04T11:02:25;95029.44;;;1.12;60.06
11339;BME280;5724;42.684;23.252;2023-12-04T11:05:15;95029.69;;;1.45;59.87
11339;BME280;5724;42.684;23.252;2023-12-04T11:08:14;95016.47;;;1.72;58.15
11339;BME280;5724;42.684;23.252;2023-12-04T11:11:03;95017.41;;;2.29;57.75
11339;BME280;5724;42.684;23.252;2023-12-04T11:13:54;95002.69;;;2.59;55.69
11339;BME280;5724;42.684;23.252;2023-12-04T11:16:48;95002.66;;;2.97;55.04
11339;BME280;5724;42.684;23.252;2023-12-04T11:19:45;95001.94;;;3.24;54.49
11339;BME280;5724;42.684;23.252;2023-12-04T11:22:33;94999.50;;;3.55;52.68
11339;BME280;5724;42.684;23.252;2023-12-04T11:25:21;94994.81;;;3.74;51.92
11339;BME280;5724;42.684;23.252;2023-12-04T11:28:11;94994.81;;;4.16;51.72
11339;BME280;5724;42.684;23.252;2023-12-04T11:30:58;94998.25;;;4.44;50.94
11339;BME280;5724;42.684;23.252;2023-12-04T11:33:45;94990.63;;;3.82;50.61
11339;BME280;5724;42.684;23.252;2023-12-04T11:36:30;94978.50;;;3.66;50.00
11339;BME280;5724;42.684;23.252;2023-12-04T11:39:18;94980.00;;;3.72;50.11
11339;BME280;5724;42.684;23.252;2023-12-04T11:42:06;94975.16;;;3.41;50.62
11339;BME280;5724;42.684;23.252;2023-12-04T11:44:58;94964.22;;;2.86;52.32
11339;BME280;5724;42.684;23.252;2023-12-04T11:47:52;94962.81;;;2.89;52.24
11339;BME280;5724;42.684;23.252;2023-12-04T11:50:39;94962.16;;;2.97;52.62
11339;BME280;5724;42.684;23.252;2023-12-04T11:53:27;94964.50;;;2.52;54.42
11339;BME280;5724;42.684;23.252;2023-12-04T11:56:13;94942.25;;;2.61;54.64
11339;BME280;5724;42.684;23.252;2023-12-04T11:59:03;94938.78;;;3.06;53.76
11339;BME280;5724;42.684;23.252;2023-12-04T12:01:56;94943.88;;;3.54;52.49
11339;BME280;5724;42.684;23.252;2023-12-04T12:04:44;94943.78;;;3.87;52.46
11339;BME280;5724;42.684;23.252;2023-12-04T12:07:33;94959.00;;;4.32;52.05
11339;BME280;5724;42.684;23.252;2023-12-04T12:10:21;94951.13;;;4.22;51.47
11339;BME280;5724;42.684;23.252;2023-12-04T12:13:07;94937.69;;;4.31;51.86
11339;BME280;5724;42.684;23.252;2023-12-04T12:15:53;94942.47;;;4.34;52.77
11339;BME280;5724;42.684;23.252;2023-12-04T12:18:40;94931.06;;;4.37;52.41
11339;BME280;5724;42.684;23.252;2023-12-04T12:21:27;94935.59;;;4.64;51.96
11339;BME280;5724;42.684;23.252;2023-12-04T12:24:13;94932.81;;;4.78;50.94
11339;BME280;5724;42.684;23.252;2023-12-04T12:27:00;94929.88;;;4.66;51.21
11339;BME280;5724;42.684;23.252;2023-12-04T12:29:46;94921.75;;;4.66;49.48
11339;BME280;5724;42.684;23.252;2023-12-04T12:32:32;94921.50;;;4.76;51.05
11339;BME280;5724;42.684;23.252;2023-12-04T12:35:18;94912.06;;;4.28;51.04
11339;BME280;5724;42.684;23.252;2023-12-04T12:38:04;94920.56;;;4.22;51.21
11339;BME280;5724;42.684;23.252;2023-12-04T12:40:50;94915.84;;;4.64;51.08
11339;BME280;5724;42.684;23.252;2023-12-04T12:43:37;94905.78;;;4.42;51.25
11339;BME280;5724;42.684;23.252;2023-12-04T12:46:23;94909.44;;;4.37;50.44
11339;BME280;5724;42.684;23.252;2023-12-04T12:49:09;94905.00;;;4.41;50.97
11339;BME280;5724;42.684;23.252;2023-12-04T12:51:55;94907.81;;;4.36;50.68
11339;BME280;5724;42.684;23.252;2023-12-04T12:54:43;94905.06;;;4.14;51.49
11339;BME280;5724;42.684;23.252;2023-12-04T12:57:29;94891.16;;;4.43;50.85
11339;BME280;5724;42.684;23.252;2023-12-04T13:00:16;94888.16;;;4.44;50.38
11339;BME280;5724;42.684;23.252;2023-12-04T13:03:03;94882.63;;;4.13;52.04
11339;BME280;5724;42.684;23.252;2023-12-04T13:05:49;94894.69;;;4.07;53.04
11339;BME280;5724;42.684;23.252;2023-12-04T13:08:34;94894.00;;;4.38;52.06
11339;BME280;5724;42.684;23.252;2023-12-04T13:11:20;94899.09;;;4.62;51.82
11339;BME280;5724;42.684;23.252;2023-12-04T13:14:06;94888.56;;;4.82;51.23
11339;BME280;5724;42.684;23.252;2023-12-04T13:16:52;94898.19;;;4.66;50.95
11339;BME280;5724;42.684;23.252;2023-12-04T13:19:40;94896.16;;;4.49;53.08
11339;BME280;5724;42.684;23.252;2023-12-04T13:22:27;94898.44;;;4.56;52.38
11339;BME280;5724;42.684;23.252;2023-12-04T13:24:54;94906.38;;;4.75;52.87
11339;BME280;5724;42.684;23.252;2023-12-04T13:27:20;94895.72;;;4.78;52.61
11339;BME280;5724;42.684;23.252;2023-12-04T13:29:45;94900.13;;;4.52;54.52
11339;BME280;5724;42.684;23.252;2023-12-04T13:32:35;94885.88;;;4.60;54.30
11339;BME280;5724;42.684;23.252;2023-12-04T13:35:21;94902.44;;;4.58;54.48
11339;BME280;5724;42.684;23.252;2023-12-04T13:38:07;94884.22;;;4.50;54.73
11339;BME280;5724;42.684;23.252;2023-12-04T13:41:00;94890.25;;;4.47;54.83
11339;BME280;5724;42.684;23.252;2023-12-04T13:43:54;94889.44;;;4.69;55.39
11339;BME280;5724;42.684;23.252;2023-12-04T13:46:40;94885.31;;;4.72;55.87
11339;BME280;5724;42.684;23.252;2023-12-04T13:49:26;94887.06;;;4.68;55.98
11339;BME280;5724;42.684;23.252;2023-12-04T13:52:12;94893.19;;;4.59;57.55
11339;BME280;5724;42.684;23.252;2023-12-04T13:54:58;94890.72;;;4.49;58.18
11339;BME280;5724;42.684;23.252;2023-12-04T13:57:44;94884.47;;;4.63;59.25
11339;BME280;5724;42.684;23.252;2023-12-04T14:00:50;94888.91;;;4.58;59.24
11339;BME280;5724;42.684;23.252;2023-12-04T14:03:36;94892.25;;;4.42;59.57
11339;BME280;5724;42.684;23.252;2023-12-04T14:06:22;94895.44;;;4.21;60.66
11339;BME280;5724;42.684;23.252;2023-12-04T14:09:08;94896.28;;;3.94;61.23
11339;BME280;5724;42.684;23.252;2023-12-04T14:11:55;94892.75;;;3.30;64.08
11339;BME280;5724;42.684;23.252;2023-12-04T14:14:41;94901.91;;;3.02;66.44
11339;BME280;5724;42.684;23.252;2023-12-04T14:17:27;94889.03;;;2.47;69.32
11339;BME280;5724;42.684;23.252;2023-12-04T14:20:13;94898.31;;;2.41;70.59
11339;BME280;5724;42.684;23.252;2023-12-04T14:23:02;94894.94;;;2.49;70.52
11339;BME280;5724;42.684;23.252;2023-12-04T14:25:49;94889.50;;;2.36;71.92
11339;BME280;5724;42.684;23.252;2023-12-04T14:28:35;94888.34;;;2.42;72.10
11339;BME280;5724;42.684;23.252;2023-12-04T14:31:21;94887.09;;;2.34;73.13
11339;BME280;5724;42.684;23.252;2023-12-04T14:34:08;94881.88;;;2.24;72.77
11339;BME280;5724;42.684;23.252;2023-12-04T14:36:54;94882.28;;;2.12;73.75
11339;BME280;5724;42.684;23.252;2023-12-04T14:39:40;94889.81;;;2.15;73.84
11339;BME280;5724;42.684;23.252;2023-12-04T14:42:27;94883.97;;;2.08;74.05
11339;BME280;5724;42.684;23.252;2023-12-04T14:45:13;94874.34;;;1.83;74.56